createdAt,value
2022-12-23T08:35:19.883Z,99925.22
2022-12-23T08:37:57.384Z,99933.88
2022-12-23T08:40:34.438Z,99934.72
2022-12-23T08:43:11.896Z,99938.94
2022-12-23T08:45:49.340Z,99929.13
2022-12-23T08:48:26.739Z,99931.75
2022-12-23T08:51:08.448Z,99935.13
2022-12-23T08:53:46.050Z,99941.78
2022-12-23T08:56:25.969Z,99930.06
2022-12-23T08:59:04.418Z,99928.91
2022-12-23T09:01:41.596Z,99927.31
2022-12-23T09:04:19.025Z,99927.31
2022-12-23T09:06:58.663Z,99917.38
2022-12-23T09:09:36.855Z,99929.84
2022-12-23T09:12:14.050Z,99914.88
2022-12-23T09:14:51.469Z,99909.25
2022-12-23T09:17:28.512Z,99905.69
2022-12-23T09:20:05.856Z,99903.03
2022-12-23T09:22:45.548Z,99898.50
2022-12-23T09:25:22.881Z,99903.03
2022-12-23T09:28:00.261Z,99903.03
2022-12-23T09:30:37.746Z,99906.41
2022-12-23T09:33:14.700Z,99907.25
2022-12-23T09:35:52.026Z,99907.00
2022-12-23T09:38:31.646Z,99917.56
2022-12-23T09:41:28.315Z,99916.31
2022-12-23T09:44:24.969Z,99926.03
2022-12-23T09:47:05.770Z,99921.59
2022-12-23T09:49:49.539Z,99926.66
2022-12-23T09:52:39.825Z,99924.34
2022-12-23T09:55:25.194Z,99922.56
2022-12-23T09:58:08.325Z,99926.25
2022-12-23T10:01:01.089Z,99917.16
2022-12-23T10:03:58.601Z,99916.66
2022-12-23T10:06:37.512Z,99898.19
2022-12-23T10:09:17.435Z,99899.78
2022-12-23T10:11:57.466Z,99901.34
2022-12-23T10:14:38.312Z,99899.97
2022-12-23T10:17:30.481Z,99886.38
2022-12-23T10:20:14.876Z,99888.88
2022-12-23T10:22:51.786Z,99901.22
2022-12-23T10:25:36.704Z,99900.28
2022-12-23T10:28:16.393Z,99891.31
2022-12-23T10:31:31.038Z,99892.03
2022-12-23T10:34:09.012Z,99889.41
2022-12-23T10:36:53.834Z,99905.34
2022-12-23T10:39:40.428Z,99901.72
2022-12-23T10:42:29.086Z,99895.59
2022-12-23T10:45:26.508Z,99900.28
2022-12-23T10:48:21.942Z,99901.13
2022-12-23T10:51:04.633Z,99899.22
2022-12-23T10:53:53.576Z,99906.16
2022-12-23T10:56:31.976Z,99906.16
2022-12-23T10:59:17.108Z,99908.06
2022-12-23T11:02:05.279Z,99919.25
2022-12-23T11:04:45.038Z,99916.09
2022-12-23T11:10:25.142Z,99905.94
2022-12-23T11:13:02.621Z,99905.72
2022-12-23T11:15:42.416Z,99911.22
2022-12-23T11:18:24.859Z,99914.38
2022-12-23T11:21:09.824Z,99917.97
2022-12-23T11:23:46.926Z,99920.63
2022-12-23T11:26:24.629Z,99924.19
2022-12-23T11:29:09.866Z,99916.06
2022-12-23T11:31:47.798Z,99930.31
2022-12-23T11:34:32.105Z,99922.78
2022-12-23T11:37:09.470Z,99919.44
2022-12-23T11:39:50.649Z,99922.78
2022-12-23T11:42:33.438Z,99919.22
2022-12-23T11:45:12.407Z,99922.78
2022-12-23T11:47:49.774Z,99915.59
2022-12-23T11:50:38.112Z,99911.19
2022-12-23T11:53:18.345Z,99917.81
2022-12-23T11:56:04.727Z,99926.53
2022-12-23T11:58:50.374Z,99918.75
2022-12-23T12:01:28.777Z,99915.16
2022-12-23T12:04:11.242Z,99931.00
2022-12-23T12:06:56.424Z,99922.34
2022-12-23T12:09:36.196Z,99916.84
2022-12-23T12:12:21.491Z,99918.53
2022-12-23T12:15:01.804Z,99907.75
2022-12-23T12:17:44.285Z,99910.50
2022-12-23T12:20:31.356Z,99913.75
2022-12-23T12:23:17.610Z,99898.28
2022-12-23T12:26:02.447Z,99907.13
2022-12-23T12:28:45.084Z,99901.72
2022-12-23T12:31:30.073Z,99905.00
2022-12-23T12:34:18.028Z,99913.63
2022-12-23T12:37:02.765Z,99907.75
2022-12-23T12:39:46.909Z,99903.94
2022-12-23T12:42:35.896Z,99895.88
2022-12-23T12:45:24.238Z,99921.47
2022-12-23T12:48:36.828Z,99914.69
2022-12-23T12:51:26.023Z,99917.25
2022-12-23T12:54:15.437Z,99914.09
2022-12-23T12:56:57.854Z,99906.78
2022-12-23T12:59:39.174Z,99912.19
2022-12-23T13:02:49.966Z,99919.75
2022-12-23T13:05:55.345Z,99906.78
2022-12-23T13:08:49.113Z,99914.50
2022-12-23T13:11:31.265Z,99918.31
2022-12-23T13:14:26.367Z,99908.34
2022-12-23T13:17:11.729Z,99919.63
2022-12-23T13:19:56.149Z,99917.00
2022-12-23T13:22:37.535Z,99913.41
2022-12-23T13:25:22.314Z,99914.28
2022-12-23T13:28:05.774Z,99912.34
2022-12-23T13:30:55.852Z,99914.88
2022-12-23T13:33:44.832Z,99914.28
2022-12-23T13:36:40.741Z,99920.28
2022-12-23T13:39:43.878Z,99910.66
2022-12-23T13:42:34.555Z,99910.66
2022-12-23T13:45:19.789Z,99914.03
2022-12-23T13:48:19.937Z,99912.94
2022-12-23T13:51:05.323Z,99915.00
2022-12-23T13:54:04.175Z,99926.63
2022-12-23T13:56:50.385Z,99917.63
2022-12-23T13:59:41.033Z,99916.91
2022-12-23T14:02:46.959Z,99923.63
2022-12-23T14:05:45.705Z,99925.03
2022-12-23T14:08:44.308Z,99922.28
2022-12-23T14:11:28.445Z,99921.69
2022-12-23T14:14:08.572Z,99919.13
2022-12-23T14:17:07.525Z,99930.75
2022-12-23T14:20:12.365Z,99933.19
2022-12-23T14:23:08.720Z,99926.97
2022-12-23T14:26:27.475Z,99925.25
2022-12-23T14:29:49.336Z,99922.75
2022-12-23T14:32:31.340Z,99929.94
2022-12-23T14:35:49.085Z,99931.00
2022-12-23T14:38:37.696Z,99931.44
2022-12-23T14:41:41.569Z,99931.44
2022-12-23T14:44:42.848Z,99934.19
2022-12-23T14:47:40.341Z,99942.19
2022-12-23T14:50:43.533Z,99949.63
2022-12-23T14:53:31.726Z,99952.56
2022-12-23T14:56:26.047Z,99946.34
2022-12-23T14:59:20.728Z,99949.22
2022-12-23T15:02:02.394Z,99950.06
2022-12-23T15:04:47.109Z,99959.66
2022-12-23T15:07:32.118Z,99962.31
2022-12-23T15:10:21.775Z,99967.59
2022-12-23T15:13:03.228Z,99954.47
2022-12-23T15:15:40.276Z,99953.63
2022-12-23T15:18:17.746Z,99958.91
2022-12-23T15:21:05.219Z,99963.56
2022-12-23T15:23:51.237Z,99964.44
2022-12-23T15:26:33.886Z,99960.00
2022-12-23T15:29:12.226Z,99963.47
2022-12-23T15:31:55.151Z,99959.16
2022-12-23T15:34:36.616Z,99970.56
2022-12-23T15:37:15.998Z,99964.44
2022-12-23T15:40:00.469Z,99965.28
2022-12-23T15:42:51.939Z,99979.28
2022-12-23T15:45:38.144Z,99972.34
2022-12-23T15:48:29.285Z,99978.34
2022-12-23T15:51:14.370Z,99990.81
2022-12-23T15:53:51.917Z,99985.53
2022-12-23T15:56:33.588Z,99986.38
2022-12-23T15:59:23.541Z,99985.00
2022-12-23T16:02:01.096Z,99984.28
2022-12-23T16:04:38.162Z,99988.06
2022-12-23T16:07:29.943Z,99981.22
2022-12-23T16:10:23.435Z,99984.09
2022-12-23T16:13:03.231Z,99986.72
2022-12-23T16:15:42.809Z,99988.72
2022-12-23T16:18:26.618Z,99990.63
2022-12-23T16:21:08.172Z,99999.25
2022-12-23T16:23:56.177Z,100008.34
2022-12-23T16:26:33.451Z,100004.13
2022-12-23T16:29:17.210Z,100008.69
2022-12-23T16:32:02.027Z,100012.78
2022-12-23T16:34:39.730Z,100011.63
2022-12-23T16:37:16.691Z,100003.19
2022-12-23T16:39:54.021Z,100020.16
2022-12-23T16:42:31.070Z,100023.31
2022-12-23T16:45:09.558Z,100018.25
2022-12-23T16:47:49.147Z,100019.75
2022-12-23T16:50:26.456Z,100029.75
2022-12-23T16:53:03.386Z,100033.00
2022-12-23T16:55:46.236Z,100044.84
2022-12-23T16:58:27.388Z,100046.44
2022-12-23T17:01:04.782Z,100041.25
2022-12-23T17:03:44.427Z,100035.88
2022-12-23T17:06:23.614Z,100047.38
2022-12-23T17:09:00.581Z,100055.16
2022-12-23T17:11:43.351Z,100056.00
2022-12-23T17:14:24.347Z,100056.84
2022-12-23T17:17:01.772Z,100059.59
2022-12-23T17:19:41.443Z,100061.25
2022-12-23T17:22:19.435Z,100059.78
2022-12-23T17:24:56.332Z,100057.47
2022-12-23T17:27:33.701Z,100063.59
2022-12-23T17:30:17.427Z,100057.91
2022-12-23T17:32:59.484Z,100051.53
2022-12-23T17:35:39.014Z,100048.81
2022-12-23T17:38:20.004Z,100058.47
2022-12-23T17:40:59.344Z,100059.94
2022-12-23T17:43:37.404Z,100047.91
2022-12-23T17:46:18.737Z,100051.69
2022-12-23T17:48:57.575Z,100053.78
2022-12-23T17:51:37.279Z,100048.94
2022-12-23T17:54:28.403Z,100041.34
2022-12-23T17:57:06.932Z,100047.66
2022-12-23T17:59:47.710Z,100049.94
2022-12-23T18:02:31.072Z,100058.44
2022-12-23T18:05:27.758Z,100065.88
2022-12-23T18:08:08.557Z,100066.25
2022-12-23T18:10:46.614Z,100078.69
2022-12-23T18:13:24.827Z,100078.44
2022-12-23T18:16:02.608Z,100089.88
2022-12-23T18:18:46.301Z,100083.88
2022-12-23T18:21:28.260Z,100094.59
2022-12-23T18:24:09.825Z,100091.22
2022-12-23T18:26:48.039Z,100091.50
2022-12-23T18:29:25.564Z,100093.69
2022-12-23T18:32:03.920Z,100106.84
2022-12-23T18:34:40.832Z,100106.09
2022-12-23T18:37:18.213Z,100109.66
2022-12-23T18:39:57.834Z,100111.34
2022-12-23T18:42:35.332Z,100110.69
2022-12-23T18:45:36.023Z,100119.53
2022-12-23T18:48:14.389Z,100125.16
2022-12-23T18:50:51.398Z,100128.06
2022-12-23T18:53:28.810Z,100133.50
2022-12-23T18:56:09.191Z,100138.75
2022-12-23T18:58:46.833Z,100135.94
2022-12-23T19:01:24.029Z,100139.69
2022-12-23T19:04:01.388Z,100135.44
2022-12-23T19:06:39.086Z,100141.78
2022-12-23T19:09:21.229Z,100146.19
2022-12-23T19:12:00.809Z,100145.50
2022-12-23T19:14:38.137Z,100149.09
2022-12-23T19:17:15.142Z,100148.50
2022-12-23T19:19:52.444Z,100142.31
2022-12-23T19:22:29.843Z,100138.06
2022-12-23T19:25:08.580Z,100144.34
2022-12-23T19:27:49.634Z,100134.78
2022-12-23T19:30:27.060Z,100126.16
2022-12-23T19:33:04.039Z,100136.00
2022-12-23T19:35:43.808Z,100138.06
2022-12-23T19:38:20.732Z,100137.13
2022-12-23T19:41:01.102Z,100136.44
2022-12-23T19:43:42.284Z,100136.44
2022-12-23T19:46:21.336Z,100148.66
2022-12-23T19:48:58.573Z,100139.19
2022-12-23T19:51:36.701Z,100151.63
2022-12-23T19:54:14.061Z,100149.09
2022-12-23T19:56:54.362Z,100159.50
2022-12-23T19:59:35.385Z,100174.63
2022-12-23T20:02:17.756Z,100176.56
2022-12-23T20:04:55.764Z,100183.06
2022-12-23T20:07:35.151Z,100185.84
2022-12-23T20:10:14.345Z,100187.78
2022-12-23T20:12:52.536Z,100195.81
2022-12-23T20:15:33.162Z,100192.81
2022-12-23T20:18:11.212Z,100189.69
2022-12-23T20:20:48.642Z,100192.66
2022-12-23T20:23:26.892Z,100188.41
2022-12-23T20:26:05.922Z,100191.22
2022-12-23T20:28:45.049Z,100181.91
2022-12-23T20:31:28.265Z,100183.69
2022-12-23T20:34:06.546Z,100186.56
2022-12-23T20:36:45.023Z,100184.38
2022-12-23T20:39:22.783Z,100196.81
2022-12-23T20:42:00.846Z,100197.06
2022-12-23T20:44:38.384Z,100201.31
2022-12-23T20:47:18.863Z,100202.72
2022-12-23T20:49:56.741Z,100214.63
2022-12-23T20:52:34.036Z,100217.00
2022-12-23T20:55:13.129Z,100213.41
2022-12-23T20:57:50.138Z,100213.84
2022-12-23T21:00:28.301Z,100218.91
2022-12-23T21:03:10.813Z,100212.72
2022-12-23T21:05:48.475Z,100219.91
2022-12-23T21:08:25.502Z,100218.53
2022-12-23T21:11:03.821Z,100224.91
2022-12-23T21:13:41.480Z,100219.81
2022-12-23T21:16:22.373Z,100221.53
2022-12-23T21:19:04.077Z,100227.78
2022-12-23T21:21:41.701Z,100225.38
2022-12-23T21:24:19.605Z,100236.00
